Terminal Aerodrome Forecast
Issued by NWS

Home | Current Version | Previous Version | Text Only | Print | Product List | Glossary On
Versions: 1 2 3 4 5 6 7 8 9 10 11 12 13 14
000
FTUS43 KOAX 310520
TAFSNY
TAF
KSNY 310520Z 3106/0106 08006KT P6SM FEW150
     FM311000 15012KT 3SM BR OVC007
     FM311500 16014KT 5SM BR BKN010
     FM311800 17018G24KT P6SM SCT020
     FM010100 16017KT P6SM SCT250=

USA.gov is the U.S. government's official web portal to all federal, state and local government web resources and services.